Time;durP1;ratioP1;P1;durP2;ratioP2;P2;SDS_P1;SDS_P2;PMS_P1;PMS_P2;Temp;Humidity;BMP_temperature;BMP_pressure;BME280_temperature;BME280_humidity;BME280_pressure;Samples;Min_cycle;Max_cycle;Signal;HPM_P1;HPM_P2
2021/01/02 00:01:51;;;;;;;59.28;30.35;;;2.60;94.10;;;;;;5113453;28;20873;-78
2021/01/02 00:04:31;;;;;;;61.30;29.80;;;2.60;94.00;;;;;;5113837;28;25102;-78
2021/01/02 00:07:15;;;;;;;60.47;30.83;;;2.60;94.20;;;;;;5111712;28;25115;-79
2021/01/02 00:09:43;;;;;;;60.72;29.38;;;2.60;94.40;;;;;;5114159;27;20872;-79
2021/01/02 00:12:27;;;;;;;67.30;31.35;;;2.70;94.00;;;;;;5113482;28;20938;-79
2021/01/02 00:15:06;;;;;;;65.93;30.50;;;2.60;94.10;;;;;;5113364;28;20762;-78
2021/01/02 00:17:56;;;;;;;67.47;30.95;;;2.60;94.10;;;;;;5113086;28;25117;-78
2021/01/02 00:20:42;;;;;;;60.25;30.00;;;2.70;94.00;;;;;;5113168;28;25095;-78
2021/01/02 00:23:35;;;;;;;64.70;31.05;;;2.70;94.00;;;;;;5113625;28;25195;-77
2021/01/02 00:26:13;;;;;;;63.67;31.35;;;2.60;94.10;;;;;;5113735;28;25196;-78
2021/01/02 00:28:43;;;;;;;58.17;30.17;;;2.60;94.20;;;;;;5112646;28;25139;-78
2021/01/02 00:31:36;;;;;;;66.30;30.60;;;2.60;94.20;;;;;;5113472;28;20401;-78
2021/01/02 00:34:42;;;;;;;62.72;31.27;;;2.60;94.40;;;;;;5113428;28;25158;-78
2021/01/02 00:37:38;;;;;;;67.97;32.45;;;2.60;94.70;;;;;;5101045;28;25197;-78
2021/01/02 00:40:12;;;;;;;69.50;33.05;;;2.60;94.70;;;;;;5113030;28;25095;-78
2021/01/02 00:42:39;;;;;;;69.30;33.05;;;2.60;94.90;;;;;;5111430;28;25125;-78
2021/01/02 00:45:08;;;;;;;69.40;30.63;;;2.60;94.80;;;;;;5111567;28;20424;-78
2021/01/02 00:47:36;;;;;;;68.82;33.50;;;2.50;94.60;;;;;;5112374;28;20388;-78
2021/01/02 00:50:04;;;;;;;70.47;33.53;;;2.50;94.90;;;;;;5113059;28;20398;-78
2021/01/02 00:52:45;;;;;;;67.13;32.17;;;2.50;95.10;;;;;;5111428;28;20905;-78
2021/01/02 00:55:22;;;;;;;71.63;32.97;;;2.50;95.20;;;;;;5111280;28;25124;-78
2021/01/02 00:58:22;;;;;;;69.07;33.10;;;2.50;95.30;;;;;;5111025;28;25110;-76
2021/01/02 01:00:59;;;;;;;64.38;31.65;;;2.40;95.40;;;;;;5112363;28;20475;-76
2021/01/02 01:03:34;;;;;;;70.70;33.13;;;2.40;95.40;;;;;;5112792;28;20739;-77
2021/01/02 01:06:03;;;;;;;76.18;34.63;;;2.40;95.60;;;;;;5111032;28;20400;-76
2021/01/02 01:08:33;;;;;;;68.72;31.63;;;2.40;95.70;;;;;;5111580;28;20864;-77
2021/01/02 01:11:09;;;;;;;69.67;33.60;;;2.30;95.70;;;;;;5111023;28;20864;-77
2021/01/02 01:13:34;;;;;;;68.72;34.08;;;2.30;95.80;;;;;;5112200;28;25104;-77
2021/01/02 01:16:01;;;;;;;74.65;33.38;;;2.30;95.70;;;;;;5111204;28;20406;-77
2021/01/02 01:18:47;;;;;;;67.38;32.72;;;2.30;95.70;;;;;;5111767;28;20380;-77
2021/01/02 01:21:16;;;;;;;73.30;33.63;;;2.30;95.80;;;;;;5111888;28;25099;-76
2021/01/02 01:23:59;;;;;;;73.03;33.63;;;2.30;95.90;;;;;;5112060;28;20867;-77
2021/01/02 01:26:27;;;;;;;73.13;33.60;;;2.30;95.90;;;;;;5110415;28;20411;-77
2021/01/02 01:28:57;;;;;;;74.50;34.22;;;2.30;96.20;;;;;;5111731;28;20427;-77
2021/01/02 01:31:23;;;;;;;78.82;35.00;;;2.30;96.10;;;;;;5111816;28;20387;-77
2021/01/02 01:33:57;;;;;;;77.38;34.20;;;2.30;96.30;;;;;;5111911;28;20381;-77
2021/01/02 01:36:33;;;;;;;71.30;32.80;;;2.30;96.20;;;;;;5111411;28;25163;-77
2021/01/02 01:39:01;;;;;;;80.38;36.00;;;2.30;96.10;;;;;;5111613;28;25118;-77
2021/01/02 01:41:36;;;;;;;83.45;36.42;;;2.30;96.00;;;;;;5110222;28;20394;-77
2021/01/02 01:44:10;;;;;;;80.17;34.47;;;2.30;96.10;;;;;;5111917;28;20398;-77
2021/01/02 01:46:50;;;;;;;77.97;35.17;;;2.30;96.00;;;;;;5111372;28;25135;-77
2021/01/02 01:49:31;;;;;;;77.82;34.63;;;2.30;96.00;;;;;;5110131;28;25202;-77
2021/01/02 01:51:58;;;;;;;89.47;35.10;;;2.20;96.30;;;;;;5111992;28;20372;-77
2021/01/02 01:54:29;;;;;;;71.57;33.42;;;2.30;95.90;;;;;;5111443;28;20379;-78
2021/01/02 01:57:03;;;;;;;82.70;34.57;;;2.20;95.90;;;;;;5110785;28;20489;-78
2021/01/02 01:59:55;;;;;;;73.22;33.28;;;2.30;95.80;;;;;;5109825;28;25125;-77
2021/01/02 02:02:35;;;;;;;72.43;32.80;;;2.30;96.00;;;;;;5111552;28;20426;-77
2021/01/02 02:05:04;;;;;;;75.97;33.88;;;2.30;96.00;;;;;;5111569;28;20424;-77
2021/01/02 02:07:47;;;;;;;70.65;32.83;;;2.20;96.20;;;;;;5110708;28;20392;-77
2021/01/02 02:10:32;;;;;;;69.30;30.27;;;2.30;96.10;;;;;;5109953;28;25101;-77
2021/01/02 02:13:00;;;;;;;72.25;31.65;;;2.20;95.80;;;;;;5109600;28;25091;-77
2021/01/02 02:15:29;;;;;;;72.17;32.83;;;2.20;95.90;;;;;;5111377;28;20394;-78
2021/01/02 02:18:05;;;;;;;68.70;32.42;;;2.20;96.00;;;;;;5110912;28;20394;-78
2021/01/02 02:20:32;;;;;;;68.63;31.27;;;2.30;95.80;;;;;;5111304;28;20768;-77
2021/01/02 02:23:08;;;;;;;69.63;32.22;;;2.30;95.90;;;;;;5111215;28;20374;-77
2021/01/02 02:26:04;;;;;;;64.38;30.52;;;2.30;95.60;;;;;;5110857;28;25095;-78
2021/01/02 02:28:32;;;;;;;72.38;33.03;;;2.20;95.80;;;;;;5110921;28;20792;-78
2021/01/02 02:31:04;;;;;;;66.93;29.90;;;2.20;95.90;;;;;;5110975;28;20392;-77
2021/01/02 02:33:31;;;;;;;66.63;29.83;;;2.20;95.60;;;;;;5111285;28;20488;-77
2021/01/02 02:35:59;;;;;;;70.67;31.77;;;2.10;96.00;;;;;;5110946;28;20391;-78
2021/01/02 02:38:25;;;;;;;66.80;29.08;;;2.20;95.70;;;;;;5110724;28;20401;-78
2021/01/02 02:40:50;;;;;;;62.60;29.45;;;2.20;95.70;;;;;;5111055;28;20400;-78
2021/01/02 02:43:19;;;;;;;63.67;29.70;;;2.20;95.70;;;;;;5110810;28;20380;-77
2021/01/02 02:45:48;;;;;;;61.75;29.55;;;2.20;95.80;;;;;;5111196;28;20474;-77
2021/01/02 02:48:17;;;;;;;59.75;27.80;;;2.20;95.90;;;;;;5110517;28;20371;-78
2021/01/02 02:50:47;;;;;;;56.20;27.63;;;2.10;96.00;;;;;;5110963;28;20800;-78
2021/01/02 02:53:15;;;;;;;61.78;27.23;;;2.20;96.00;;;;;;5110932;28;20380;-78
2021/01/02 02:55:42;;;;;;;58.30;26.75;;;2.10;95.70;;;;;;5111332;28;20392;-77
2021/01/02 02:58:09;;;;;;;55.17;26.15;;;2.20;95.90;;;;;;5110623;28;20373;-77
2021/01/02 03:00:36;;;;;;;53.13;25.33;;;2.20;95.50;;;;;;5109863;28;20404;-78
2021/01/02 03:03:02;;;;;;;57.40;26.92;;;2.10;95.80;;;;;;5110726;28;20465;-78
2021/01/02 03:05:29;;;;;;;52.78;25.38;;;2.10;95.80;;;;;;5110541;28;20464;-78
2021/01/02 03:07:56;;;;;;;53.85;24.58;;;2.10;95.70;;;;;;5109916;28;20388;-78
2021/01/02 03:10:22;;;;;;;53.75;24.88;;;2.20;95.40;;;;;;5115259;28;20467;-78
2021/01/02 03:12:50;;;;;;;55.83;24.60;;;2.10;95.90;;;;;;5115492;27;20407;-78
2021/01/02 03:15:18;;;;;;;42.47;21.45;;;2.10;95.60;;;;;;5114856;28;20367;-77
2021/01/02 03:17:46;;;;;;;48.08;24.08;;;2.10;95.40;;;;;;5114696;28;20486;-77
2021/01/02 03:20:15;;;;;;;51.22;23.80;;;2.10;95.50;;;;;;5114912;28;20382;-77
2021/01/02 03:22:42;;;;;;;46.10;22.35;;;2.10;95.50;;;;;;5114857;28;20406;-78
2021/01/02 03:25:09;;;;;;;46.65;20.80;;;2.10;95.30;;;;;;5113276;28;20462;-78
2021/01/02 03:27:35;;;;;;;51.95;21.80;;;2.10;95.30;;;;;;5114443;28;20433;-78
2021/01/02 03:30:03;;;;;;;43.33;20.30;;;2.10;95.50;;;;;;5114480;28;20383;-78
2021/01/02 03:32:28;;;;;;;46.83;21.20;;;2.10;95.10;;;;;;5114422;28;20363;-78
2021/01/02 03:34:54;;;;;;;49.60;21.03;;;2.10;94.90;;;;;;5114653;28;20867;-78
2021/01/02 03:37:19;;;;;;;47.27;21.83;;;2.10;95.20;;;;;;5113544;28;20394;-78
2021/01/02 03:39:45;;;;;;;46.43;21.87;;;2.10;95.10;;;;;;5114810;28;20420;-78
2021/01/02 03:42:10;;;;;;;45.90;20.53;;;2.10;95.20;;;;;;5112849;28;20411;-78
2021/01/02 03:44:36;;;;;;;42.13;20.30;;;2.10;95.20;;;;;;5114178;28;20384;-78
2021/01/02 03:47:09;;;;;;;43.20;19.70;;;2.10;95.20;;;;;;5112345;28;20446;-78
2021/01/02 03:49:35;;;;;;;42.22;20.77;;;2.10;95.30;;;;;;5114306;28;20372;-78
2021/01/02 03:52:05;;;;;;;41.72;19.55;;;2.00;95.30;;;;;;5112558;28;20385;-78
2021/01/02 03:54:32;;;;;;;41.53;19.55;;;2.10;95.00;;;;;;5112943;28;20376;-77
2021/01/02 03:56:57;;;;;;;41.95;20.23;;;2.10;95.10;;;;;;5113625;28;20392;-77
2021/01/02 03:59:23;;;;;;;41.38;20.23;;;2.10;95.30;;;;;;5113695;28;20434;-77
2021/01/02 04:01:59;;;;;;;40.77;20.33;;;2.10;95.10;;;;;;5113967;28;20399;-79
2021/01/02 04:04:26;;;;;;;41.70;20.92;;;2.10;95.20;;;;;;5113726;28;20396;-79
2021/01/02 04:06:51;;;;;;;40.95;19.95;;;2.10;95.20;;;;;;5113453;28;20372;-79
2021/01/02 04:09:18;;;;;;;44.47;20.52;;;2.10;95.00;;;;;;5112326;28;20733;-79
2021/01/02 04:11:53;;;;;;;40.40;20.42;;;2.10;95.20;;;;;;5114213;28;20445;-79
2021/01/02 04:14:18;;;;;;;43.90;20.42;;;2.00;95.00;;;;;;5113168;28;20959;-79
2021/01/02 04:16:44;;;;;;;38.67;20.70;;;2.10;95.00;;;;;;5113967;28;20415;-79
2021/01/02 04:19:11;;;;;;;42.03;18.80;;;2.10;95.00;;;;;;5112879;28;20772;-79
2021/01/02 04:21:37;;;;;;;38.53;19.42;;;2.10;94.60;;;;;;5113503;28;20400;-79
2021/01/02 04:24:04;;;;;;;45.13;20.92;;;2.00;94.80;;;;;;5113467;28;20379;-79
2021/01/02 04:26:30;;;;;;;41.42;19.85;;;2.10;95.00;;;;;;5113070;28;20380;-79
2021/01/02 04:28:56;;;;;;;39.83;19.48;;;2.10;94.60;;;;;;5113322;28;20373;-79
2021/01/02 04:31:31;;;;;;;43.95;21.33;;;2.00;94.80;;;;;;5113092;28;20397;-79
2021/01/02 04:33:56;;;;;;;42.63;21.73;;;2.10;94.60;;;;;;5113619;28;20481;-79
2021/01/02 04:36:22;;;;;;;49.35;21.52;;;2.10;94.60;;;;;;5112830;28;20412;-80
2021/01/02 04:38:47;;;;;;;44.70;21.73;;;2.10;94.80;;;;;;5112948;28;20385;-79
2021/01/02 04:41:14;;;;;;;44.63;21.80;;;2.10;95.00;;;;;;5113165;28;20443;-79
2021/01/02 04:43:41;;;;;;;43.90;21.58;;;2.10;94.60;;;;;;5113122;28;20384;-79
2021/01/02 04:46:07;;;;;;;46.60;22.67;;;2.10;94.70;;;;;;5113054;28;20574;-79
2021/01/02 04:48:32;;;;;;;48.03;22.42;;;2.10;94.60;;;;;;5112485;28;20404;-79
2021/01/02 04:50:58;;;;;;;53.58;24.45;;;2.10;94.50;;;;;;5113360;28;20465;-79
2021/01/02 04:53:24;;;;;;;51.55;24.45;;;2.10;94.50;;;;;;5112758;28;20991;-79
2021/01/02 04:55:52;;;;;;;48.35;24.05;;;2.10;94.30;;;;;;5111487;28;20888;-79
2021/01/02 04:58:18;;;;;;;49.33;24.23;;;2.10;94.60;;;;;;5110771;28;20439;-79
2021/01/02 05:00:47;;;;;;;48.53;25.10;;;2.10;94.60;;;;;;5112912;28;20452;-79
2021/01/02 05:03:12;;;;;;;49.08;24.75;;;2.10;94.60;;;;;;5111270;28;20422;-79
2021/01/02 05:05:39;;;;;;;53.80;24.60;;;2.10;94.30;;;;;;5112743;28;20380;-79
2021/01/02 05:08:05;;;;;;;51.53;24.52;;;2.10;94.60;;;;;;5112340;28;20376;-79
2021/01/02 05:10:31;;;;;;;51.73;24.53;;;2.10;94.40;;;;;;5112737;28;20690;-79
2021/01/02 05:13:12;;;;;;;45.03;22.13;;;2.10;94.30;;;;;;5112423;28;20402;-79
2021/01/02 05:15:39;;;;;;;53.20;25.15;;;2.00;94.10;;;;;;5112501;28;20418;-79
2021/01/02 05:18:05;;;;;;;49.50;24.98;;;2.00;94.40;;;;;;5111979;28;20863;-79
2021/01/02 05:20:31;;;;;;;51.25;23.35;;;2.00;94.40;;;;;;5112460;28;20454;-79
2021/01/02 05:23:10;;;;;;;49.88;23.75;;;2.00;94.50;;;;;;5112628;28;20775;-79
2021/01/02 05:25:36;;;;;;;52.10;25.65;;;2.10;94.40;;;;;;5111852;28;20913;-79
2021/01/02 05:28:02;;;;;;;53.58;24.45;;;2.00;94.70;;;;;;5111538;28;20376;-79
2021/01/02 05:30:33;;;;;;;53.22;24.77;;;2.00;94.40;;;;;;5111321;28;20381;-79
2021/01/02 05:33:13;;;;;;;51.17;24.25;;;1.90;94.20;;;;;;5111630;28;20401;-79
2021/01/02 05:35:43;;;;;;;48.30;23.75;;;2.00;94.60;;;;;;5110655;28;20781;-79
2021/01/02 05:38:13;;;;;;;43.40;22.58;;;2.00;94.40;;;;;;5111853;28;20465;-79
2021/01/02 05:40:41;;;;;;;48.78;23.55;;;2.00;94.60;;;;;;5112408;28;20868;-79
2021/01/02 05:43:07;;;;;;;48.37;22.57;;;2.00;94.30;;;;;;5112172;28;20373;-79
2021/01/02 05:45:33;;;;;;;46.47;22.60;;;1.90;94.30;;;;;;5112417;28;20383;-79
2021/01/02 05:48:12;;;;;;;41.90;21.77;;;2.00;94.10;;;;;;5109975;28;20388;-79
2021/01/02 05:50:48;;;;;;;48.33;22.83;;;2.00;94.30;;;;;;5110846;28;20383;-79
2021/01/02 05:53:17;;;;;;;46.17;22.90;;;2.00;94.20;;;;;;5111750;28;20379;-79
2021/01/02 05:55:44;;;;;;;49.83;23.48;;;2.00;94.20;;;;;;5111990;28;20434;-79
2021/01/02 05:58:18;;;;;;;45.22;23.17;;;2.00;93.90;;;;;;5111199;28;20385;-79
2021/01/02 06:00:45;;;;;;;43.40;20.77;;;2.00;93.80;;;;;;5110312;28;20397;-79
2021/01/02 06:03:26;;;;;;;47.95;22.27;;;2.00;93.50;;;;;;5111806;28;20395;-79
2021/01/02 06:06:01;;;;;;;44.07;22.30;;;2.00;93.60;;;;;;5110195;28;20383;-79
2021/01/02 06:08:34;;;;;;;44.05;21.63;;;2.00;93.80;;;;;;5109894;28;21032;-79
2021/01/02 06:11:03;;;;;;;42.60;20.98;;;2.00;93.60;;;;;;5111323;28;20416;-79
2021/01/02 06:13:31;;;;;;;41.40;21.88;;;1.90;93.60;;;;;;5110256;28;20410;-79
2021/01/02 06:15:59;;;;;;;44.55;21.58;;;1.90;93.70;;;;;;5109853;28;20402;-79
2021/01/02 06:18:26;;;;;;;43.47;21.60;;;2.00;93.40;;;;;;5111063;28;20391;-79
2021/01/02 06:20:52;;;;;;;42.35;21.73;;;2.00;93.70;;;;;;5111523;28;20447;-79
2021/01/02 06:23:19;;;;;;;43.43;21.43;;;1.90;93.60;;;;;;5110964;28;20397;-79
2021/01/02 06:25:48;;;;;;;45.30;21.13;;;1.90;93.30;;;;;;5111281;28;20379;-79
2021/01/02 06:28:15;;;;;;;43.10;20.95;;;2.00;93.30;;;;;;5110593;28;20406;-79
2021/01/02 06:30:42;;;;;;;41.10;20.17;;;2.00;93.20;;;;;;5111257;28;20475;-79
2021/01/02 06:33:16;;;;;;;45.47;20.27;;;1.90;92.80;;;;;;5110980;28;20380;-79
2021/01/02 06:35:43;;;;;;;44.05;20.45;;;1.90;93.00;;;;;;5109888;28;20416;-79
2021/01/02 06:38:13;;;;;;;43.25;21.67;;;1.90;93.00;;;;;;5108958;28;20381;-79
2021/01/02 06:40:47;;;;;;;47.85;20.73;;;1.90;92.80;;;;;;5109770;28;20782;-79
2021/01/02 06:43:40;;;;;;;45.53;21.75;;;1.90;93.00;;;;;;5110584;28;20431;-79
2021/01/02 06:46:10;;;;;;;47.22;21.48;;;1.90;92.90;;;;;;5109757;27;20417;-79
2021/01/02 06:48:36;;;;;;;44.13;21.25;;;1.90;92.80;;;;;;5110596;28;20866;-79
2021/01/02 06:51:23;;;;;;;43.00;21.10;;;1.90;93.00;;;;;;5110955;28;20724;-79
2021/01/02 06:53:49;;;;;;;44.20;21.60;;;1.90;93.00;;;;;;5111113;28;20411;-79
2021/01/02 06:56:16;;;;;;;42.43;20.33;;;1.90;93.00;;;;;;5110679;28;20392;-79
2021/01/02 06:58:44;;;;;;;44.90;21.73;;;1.90;92.50;;;;;;5110541;28;20412;-79
2021/01/02 07:01:15;;;;;;;42.92;20.42;;;1.90;92.70;;;;;;5110510;28;20791;-79
2021/01/02 07:03:46;;;;;;;39.65;20.48;;;1.80;92.90;;;;;;5110640;28;20404;-78
2021/01/02 07:06:26;;;;;;;44.58;21.00;;;1.90;93.20;;;;;;5110765;28;20383;-79
2021/01/02 07:09:11;;;;;;;42.55;20.23;;;1.90;92.40;;;;;;5108760;28;20417;-79
2021/01/02 07:12:13;;;;;;;46.03;20.45;;;1.90;92.40;;;;;;5111121;28;20387;-79
2021/01/02 07:14:40;;;;;;;41.33;19.95;;;1.90;92.40;;;;;;5110461;28;20383;-79
2021/01/02 07:17:10;;;;;;;48.90;21.17;;;1.90;92.40;;;;;;5110325;28;20724;-79
2021/01/02 07:19:48;;;;;;;42.65;19.88;;;1.90;92.70;;;;;;5111158;28;20874;-79
2021/01/02 07:22:17;;;;;;;43.47;20.10;;;1.80;92.40;;;;;;5110211;28;20491;-79
2021/01/02 07:24:48;;;;;;;44.30;19.98;;;1.80;92.60;;;;;;5110670;28;20388;-79
2021/01/02 07:27:20;;;;;;;41.28;20.60;;;1.90;92.60;;;;;;5109902;28;20393;-79
2021/01/02 07:29:46;;;;;;;44.05;19.80;;;1.90;92.80;;;;;;5110554;28;20451;-79
2021/01/02 07:32:21;;;;;;;45.80;20.33;;;1.80;92.40;;;;;;5110430;28;20891;-79
2021/01/02 07:34:51;;;;;;;45.33;21.10;;;1.80;92.40;;;;;;5110869;28;20812;-79
2021/01/02 07:37:22;;;;;;;46.03;19.70;;;1.80;92.10;;;;;;5109572;28;20373;-79
2021/01/02 07:40:05;;;;;;;40.92;20.05;;;1.90;92.30;;;;;;5110223;28;20412;-79
2021/01/02 07:42:47;;;;;;;44.20;20.88;;;1.80;92.50;;;;;;5110388;28;20486;-79
2021/01/02 07:45:15;;;;;;;40.35;20.15;;;1.90;92.30;;;;;;5108928;28;20904;-79
2021/01/02 07:47:56;;;;;;;44.15;20.13;;;1.80;92.20;;;;;;5110068;28;20407;-79
2021/01/02 07:50:24;;;;;;;45.33;19.85;;;1.80;91.90;;;;;;5110110;28;20405;-79
2021/01/02 07:52:54;;;;;;;46.43;19.87;;;1.90;92.80;;;;;;5110136;28;20960;-79
2021/01/02 07:55:25;;;;;;;43.67;20.67;;;1.80;92.10;;;;;;5112970;28;20422;-79
2021/01/02 07:57:51;;;;;;;42.78;20.42;;;1.90;92.70;;;;;;5113561;28;20534;-79
2021/01/02 08:00:17;;;;;;;41.85;19.33;;;1.90;91.80;;;;;;5113991;28;20935;-79
2021/01/02 08:02:43;;;;;;;41.70;20.70;;;1.90;92.00;;;;;;5111896;28;20384;-78
2021/01/02 08:05:14;;;;;;;42.60;19.85;;;1.90;91.60;;;;;;5113865;28;20376;-79
2021/01/02 08:07:42;;;;;;;48.35;21.33;;;1.90;91.90;;;;;;5113073;27;20428;-79
2021/01/02 08:10:12;;;;;;;41.70;20.13;;;1.90;91.70;;;;;;5113982;27;20458;-78
2021/01/02 08:12:45;;;;;;;46.00;20.77;;;1.90;91.00;;;;;;5113264;28;20419;-79
2021/01/02 08:15:11;;;;;;;44.05;19.70;;;1.90;91.50;;;;;;5113671;28;20929;-80
2021/01/02 08:17:41;;;;;;;44.17;20.58;;;1.90;91.10;;;;;;5113127;28;20409;-79
2021/01/02 08:20:08;;;;;;;40.85;18.95;;;1.90;91.50;;;;;;5113618;28;20436;-80
2021/01/02 08:22:36;;;;;;;42.85;20.58;;;1.90;90.90;;;;;;5113472;28;20766;-79
2021/01/02 08:25:15;;;;;;;45.33;20.23;;;1.90;91.20;;;;;;5113982;28;20411;-79
2021/01/02 08:27:41;;;;;;;42.10;21.70;;;2.00;91.50;;;;;;5113631;28;20420;-80
2021/01/02 08:30:09;;;;;;;45.95;20.17;;;2.00;91.50;;;;;;5113333;28;20391;-79
2021/01/02 08:32:41;;;;;;;44.87;20.20;;;2.00;92.00;;;;;;5113927;28;20419;-79
2021/01/02 08:35:37;;;;;;;44.50;21.10;;;2.00;91.80;;;;;;5113673;28;20826;-79
2021/01/02 08:38:05;;;;;;;45.78;20.95;;;2.00;91.80;;;;;;5107379;28;20387;-79
2021/01/02 08:40:36;;;;;;;46.40;20.53;;;2.00;91.90;;;;;;5112931;28;20407;-79
2021/01/02 08:43:02;;;;;;;43.67;21.23;;;2.00;91.70;;;;;;5112986;28;20407;-79
2021/01/02 08:45:30;;;;;;;47.55;20.65;;;2.10;91.80;;;;;;5113031;28;20729;-79
2021/01/02 08:48:12;;;;;;;44.00;21.38;;;2.00;91.80;;;;;;5112775;28;20371;-79
2021/01/02 08:50:41;;;;;;;41.47;21.42;;;2.10;91.70;;;;;;5113187;28;20416;-79
2021/01/02 08:53:22;;;;;;;43.77;21.90;;;2.10;91.20;;;;;;5112820;28;20489;-79
2021/01/02 08:55:48;;;;;;;48.03;21.90;;;2.10;91.40;;;;;;5113137;28;20450;-79
2021/01/02 08:58:13;;;;;;;46.60;21.60;;;2.20;91.00;;;;;;5112315;28;20814;-79
2021/01/02 09:00:39;;;;;;;44.73;22.10;;;2.10;91.00;;;;;;5112907;28;20400;-79
2021/01/02 09:03:06;;;;;;;46.43;21.63;;;2.20;91.40;;;;;;5112023;28;20900;-78
2021/01/02 09:05:36;;;;;;;47.40;22.88;;;2.20;91.60;;;;;;5110491;28;20443;-79
2021/01/02 09:08:07;;;;;;;49.63;22.65;;;2.20;91.30;;;;;;5107559;28;20966;-79
2021/01/02 09:10:43;;;;;;;45.92;22.63;;;2.10;90.70;;;;;;5110759;28;20387;-79
2021/01/02 09:13:19;;;;;;;54.03;21.55;;;2.20;91.40;;;;;;5111734;28;20473;-79
2021/01/02 09:15:54;;;;;;;48.97;22.83;;;2.20;91.30;;;;;;5111712;28;20523;-79
2021/01/02 09:18:28;;;;;;;47.77;21.27;;;2.20;91.00;;;;;;5111392;28;20924;-79
2021/01/02 09:21:09;;;;;;;45.95;22.15;;;2.20;90.70;;;;;;5111855;27;20490;-79
2021/01/02 09:23:37;;;;;;;44.47;21.27;;;2.20;91.10;;;;;;5111274;28;20435;-79
2021/01/02 09:26:04;;;;;;;48.67;21.60;;;2.20;91.20;;;;;;5111645;28;20406;-79
2021/01/02 09:28:41;;;;;;;45.67;21.70;;;2.30;91.50;;;;;;5110893;27;20459;-79
2021/01/02 09:31:06;;;;;;;49.10;21.97;;;2.40;91.60;;;;;;5110137;28;20527;-79
2021/01/02 09:33:32;;;;;;;48.80;22.13;;;2.30;90.40;;;;;;5111601;28;20429;-79
2021/01/02 09:35:57;;;;;;;48.28;22.38;;;2.30;91.10;;;;;;5110177;28;20381;-79
2021/01/02 09:38:23;;;;;;;48.97;22.20;;;2.30;90.80;;;;;;5110592;28;20487;-79
2021/01/02 09:40:48;;;;;;;48.28;22.08;;;2.30;91.00;;;;;;5109958;28;20404;-79
2021/01/02 09:43:15;;;;;;;48.05;22.48;;;2.30;90.60;;;;;;5111121;28;20737;-79
2021/01/02 09:45:42;;;;;;;50.22;23.45;;;2.40;91.00;;;;;;5109721;28;20789;-78
2021/01/02 09:48:08;;;;;;;52.30;22.95;;;2.40;90.90;;;;;;5110828;28;20419;-79
2021/01/02 09:50:34;;;;;;;45.08;21.98;;;2.40;90.80;;;;;;5110809;28;20475;-79
2021/01/02 09:53:03;;;;;;;53.25;24.20;;;2.50;90.80;;;;;;5111191;28;20467;-79
2021/01/02 09:55:29;;;;;;;55.10;24.77;;;2.50;91.10;;;;;;5110644;28;20804;-79
2021/01/02 09:57:55;;;;;;;55.10;24.83;;;2.50;91.00;;;;;;5110827;28;20467;-79
2021/01/02 10:00:22;;;;;;;60.07;26.40;;;2.60;90.80;;;;;;5111373;28;20711;-79
2021/01/02 10:02:48;;;;;;;50.85;22.67;;;2.60;90.80;;;;;;5111882;28;20789;-79
2021/01/02 10:05:17;;;;;;;46.28;23.00;;;2.60;90.80;;;;;;5109210;28;21456;-79
2021/01/02 10:07:43;;;;;;;50.35;24.13;;;2.60;90.80;;;;;;5111272;28;20828;-79
2021/01/02 10:10:09;;;;;;;48.75;22.02;;;2.70;91.00;;;;;;5110316;28;20423;-79
2021/01/02 10:12:35;;;;;;;47.60;22.10;;;2.70;90.20;;;;;;5111561;28;20394;-79
2021/01/02 10:15:01;;;;;;;48.63;22.30;;;2.60;90.30;;;;;;5111072;28;20377;-79
2021/01/02 10:17:28;;;;;;;50.53;23.00;;;2.60;90.80;;;;;;5110230;28;20408;-79
2021/01/02 10:19:55;;;;;;;53.05;23.15;;;2.70;90.80;;;;;;5111553;28;20415;-79
2021/01/02 10:22:21;;;;;;;54.92;25.23;;;2.80;91.10;;;;;;5110997;28;20395;-79
2021/01/02 10:24:48;;;;;;;45.73;20.73;;;2.80;90.40;;;;;;5110209;28;20881;-79
2021/01/02 10:27:14;;;;;;;52.03;22.48;;;2.80;90.60;;;;;;5110916;28;20534;-81
2021/01/02 10:29:44;;;;;;;48.72;21.48;;;2.70;90.30;;;;;;5110360;28;20538;-79
2021/01/02 10:32:10;;;;;;;53.65;22.92;;;2.70;90.30;;;;;;5111253;28;20454;-81
2021/01/02 10:34:36;;;;;;;46.35;22.35;;;2.80;90.90;;;;;;5111619;28;20398;-78
2021/01/02 10:37:02;;;;;;;47.53;21.63;;;2.80;90.10;;;;;;5110804;28;20852;-79
2021/01/02 10:39:28;;;;;;;45.83;21.17;;;2.70;89.40;;;;;;5111229;28;20379;-79
2021/01/02 10:41:53;;;;;;;44.73;21.20;;;2.70;89.90;;;;;;5109464;28;20427;-79
2021/01/02 10:44:20;;;;;;;54.53;22.30;;;2.70;89.30;;;;;;5110605;28;20385;-79
2021/01/02 10:46:47;;;;;;;48.35;21.52;;;2.80;90.50;;;;;;5110691;28;20735;-79
2021/01/02 10:49:15;;;;;;;40.92;19.95;;;2.80;89.50;;;;;;5111241;28;20371;-79
2021/01/02 10:51:41;;;;;;;49.22;21.05;;;2.80;89.70;;;;;;5109747;28;20433;-79
2021/01/02 10:54:09;;;;;;;44.63;20.77;;;2.80;90.00;;;;;;5110526;28;20376;-79
2021/01/02 10:56:34;;;;;;;45.80;21.40;;;2.80;89.70;;;;;;5110950;28;20434;-79
2021/01/02 10:59:00;;;;;;;38.57;20.60;;;2.80;89.70;;;;;;5109451;28;20392;-79
2021/01/02 11:01:26;;;;;;;42.23;20.00;;;2.80;89.00;;;;;;5110754;28;20404;-79
2021/01/02 11:03:52;;;;;;;46.75;21.13;;;2.80;89.50;;;;;;5110820;28;20433;-79
2021/01/02 11:06:18;;;;;;;40.38;20.08;;;2.90;89.80;;;;;;5110555;28;20855;-79
2021/01/02 11:08:46;;;;;;;41.87;20.00;;;2.90;89.90;;;;;;5108488;28;20403;-79
2021/01/02 11:11:19;;;;;;;39.65;19.92;;;3.00;89.90;;;;;;5110565;28;20381;-79
2021/01/02 11:13:44;;;;;;;40.80;19.50;;;2.90;89.00;;;;;;5110867;28;20386;-79
2021/01/02 11:16:10;;;;;;;37.08;18.08;;;3.00;89.00;;;;;;5110218;28;20369;-80
2021/01/02 11:18:35;;;;;;;41.33;19.08;;;3.10;89.10;;;;;;5108970;28;20381;-81
2021/01/02 11:21:01;;;;;;;47.03;19.23;;;3.10;88.80;;;;;;5109574;28;20400;-81
2021/01/02 11:23:27;;;;;;;38.10;18.30;;;3.30;88.50;;;;;;5109200;28;20388;-81
2021/01/02 11:25:52;;;;;;;36.60;17.98;;;3.20;87.60;;;;;;5109310;28;20364;-81
2021/01/02 11:28:18;;;;;;;41.25;18.85;;;3.20;88.30;;;;;;5108839;28;20392;-81
2021/01/02 11:30:44;;;;;;;41.53;19.50;;;3.40;88.30;;;;;;5113330;28;20384;-81
2021/01/02 11:33:10;;;;;;;37.83;18.48;;;3.40;89.00;;;;;;5112214;28;20429;-81
2021/01/02 11:35:36;;;;;;;37.35;17.85;;;3.50;89.10;;;;;;5113190;28;20372;-81
2021/01/02 11:38:01;;;;;;;39.00;17.30;;;3.50;87.10;;;;;;5112998;28;20396;-81
2021/01/02 11:40:27;;;;;;;35.92;17.60;;;3.40;87.70;;;;;;5113133;28;20376;-82
2021/01/02 11:42:55;;;;;;;38.85;17.85;;;3.50;87.20;;;;;;5112787;28;20388;-81
2021/01/02 11:45:22;;;;;;;35.67;16.50;;;3.50;88.00;;;;;;5113433;28;20375;-82
2021/01/02 11:47:48;;;;;;;34.25;16.02;;;3.50;86.90;;;;;;5112682;28;20383;-81
2021/01/02 11:50:14;;;;;;;37.92;17.38;;;3.50;87.60;;;;;;5113119;28;20714;-82
2021/01/02 11:52:40;;;;;;;36.75;18.45;;;3.50;87.80;;;;;;5111300;28;20412;-82
2021/01/02 11:55:06;;;;;;;36.63;17.58;;;3.60;88.30;;;;;;5111637;28;20408;-81
2021/01/02 11:57:32;;;;;;;34.22;16.60;;;3.60;86.30;;;;;;5112585;28;20399;-81
2021/01/02 11:59:58;;;;;;;32.10;15.90;;;3.50;88.10;;;;;;5111945;28;20937;-82
2021/01/02 12:02:23;;;;;;;32.97;16.17;;;3.50;87.40;;;;;;5111361;28;20404;-81
2021/01/02 12:04:49;;;;;;;30.33;15.43;;;3.60;87.50;;;;;;5112716;28;20410;-82
2021/01/02 12:07:15;;;;;;;28.20;14.47;;;3.60;87.10;;;;;;5112450;28;20856;-82
2021/01/02 12:09:42;;;;;;;32.13;14.23;;;3.50;87.60;;;;;;5112821;28;20430;-80
2021/01/02 12:12:08;;;;;;;32.90;15.52;;;3.40;86.90;;;;;;5112954;28;20721;-81
2021/01/02 12:14:35;;;;;;;32.88;15.43;;;3.50;87.20;;;;;;5112634;28;20391;-81
2021/01/02 12:17:06;;;;;;;31.25;16.05;;;3.50;87.20;;;;;;5110762;28;20422;-82
2021/01/02 12:19:32;;;;;;;33.13;16.38;;;3.50;87.10;;;;;;5112094;28;20459;-81
2021/01/02 12:22:01;;;;;;;33.60;16.17;;;3.60;86.90;;;;;;5112842;28;20877;-81
2021/01/02 12:24:27;;;;;;;29.87;15.17;;;3.70;87.00;;;;;;5112292;28;20467;-81
2021/01/02 12:26:55;;;;;;;34.17;15.57;;;3.80;87.60;;;;;;5112146;28;20386;-81
2021/01/02 12:29:23;;;;;;;29.83;15.43;;;3.80;86.90;;;;;;5110919;28;20385;-80
2021/01/02 12:31:51;;;;;;;39.33;16.63;;;3.60;86.90;;;;;;5111320;28;20435;-81
2021/01/02 12:34:20;;;;;;;37.97;17.55;;;3.70;87.10;;;;;;5111946;28;20383;-81
2021/01/02 12:36:46;;;;;;;31.60;15.80;;;3.90;88.00;;;;;;5111897;28;20408;-81
2021/01/02 12:39:22;;;;;;;30.25;14.60;;;3.90;86.30;;;;;;5112729;28;20427;-81
2021/01/02 12:41:47;;;;;;;33.33;16.00;;;3.80;85.90;;;;;;5111656;28;20412;-81
2021/01/02 12:44:14;;;;;;;29.57;15.47;;;3.90;86.30;;;;;;5112663;28;20380;-81
2021/01/02 12:46:42;;;;;;;32.88;15.65;;;3.90;87.50;;;;;;5111667;28;20849;-81
2021/01/02 12:49:08;;;;;;;27.92;15.75;;;3.90;86.60;;;;;;5112011;28;20376;-81
2021/01/02 12:51:34;;;;;;;36.83;16.65;;;3.90;86.10;;;;;;5110658;28;20944;-81